Terminal Aerodrome Forecast
Issued by NWS Cleveland, OH

Home | Current Version | Previous Version | Graphics & Text | Print | Product List | Glossary On
Versions: 1 2 3 4 5 6 7 8 9 10 11 12 13 14 15
912
FTUS41 KCLE 170342 AAA
TAFYNG
TAF AMD
KYNG 170342Z 1704/1724 12004KT P6SM VCSH OVC012
     FM170530 14005KT 2SM -RA BR OVC006
     FM171400 18010KT 4SM -RA BR OVC006
     FM171900 23012G20KT 4SM BR VCSH OVC006=

USA.gov is the U.S. government's official web portal to all federal, state and local government web resources and services.